Adger, AL

12:34 AM CDT on March 27, 2015 (GMT -0500)
Oak Grove | | Change Station
CLOSE
Current Station
Personal Weather Station
Location: Bessemer, AL
Elevation: 371 ft
Nearby Weather Stations

Elev 371 ft 33.55 °N, 87.16 °W | Updated 9 minutes ago

Overcast
Overcast
47.3 °F
Feels Like 46 °F
N
4.2
Wind Variable Wind from ENE

Today
High -- | Low -- °F
--% Chance of Precip.
Yesterday
High -- | Low -- °F
Precip. -- in
6:43 AM 7:05 PM
Waxing Crescent, 49% visible
Pressure 29.89 in
Visibility 10.0 miles
Clouds Mostly Cloudy 900 ft
Overcast 4300 ft
Windchill 46 °F
Dew Point 47 °F
Humidity 99%
Rainfall 0.00 in
Snow Depth Not available.
UV 0 out of 12
Pollen 9.50 out of 12
Air Quality Not available.
Flu Activity Not available.
SPECI KBHM 270524Z 01009KT 10SM BKN009 OVC043 09/08 A2989 RMK AO2 RAE17 P0003 T00890078

More Conditions Fewer Conditions

Pressure 29.89 in
Visibility 10.0 miles
Clouds Mostly Cloudy 900 ft
Overcast 4300 ft
Windchill 46 °F
Dew Point 47 °F
Humidity 99%
Rainfall 0.00 in
Snow Depth Not available.
UV 0 out of 12
Pollen 9.50 out of 12
Air Quality Not available.
Flu Activity Not available.
SPECI KBHM 270524Z 01009KT 10SM BKN009 OVC043 09/08 A2989 RMK AO2 RAE17 P0003 T00890078

More Conditions Fewer Conditions

10-Day Weather Forecast

Almanac

Astronomy

Mar. 27, 2015 Rise Set
Actual Time
Civil Twilight
Nautical Twilight
Astronomical Twilight
Moon
Length of Visible Light
Length of Day
Tomorrow will be .
, % of the Moon is Illuminated

Today's Extremes

State Highs State Lows

Community

WunderPhotos

Upload Photos

1,808,698 photos uploaded!

WunderBlogs® & News

Nearby

Air Quality

  Air Quality AQ Index Pollutant
Not available.

Snow Depth

Station Depth Elevation

Earthquake Activity

City Distance Mag. Time & Date
Minimum magnitude displayed is 2.5.

Coastal Water Temperatures

Place Temperature

Stations

Nearby Weather Stations

Station Location Temp. Windchill Dew Point Humidity Wind Precip. Elev Updated Type